Logo AVAMET
Benvolgut visitant, si us plau, ingressa Recuperar contrasenya

Atzeneta del Maestrat Ajuntament

Dades diàries. Acumulats / Últims 30 dies disponibles

Data Temperatura (°C) Humitat rel. (%) Pressió rel. (hPa) Vent (km/h) Precipi-
tació (mm)
Mínima Mitjana Màxima Mínima Mitjana Màxima Mínima Mitjana Màxima Predom. Mitjana Ràfega
màxima
Mínima Mitjana Màxima Mínima Mitjana Màxima
Dades mensuals acumulades fins l'últim dia disponible
09/2017 6,7 13,2 17,6 19,5 18,6 26,9 34,1   2,8 38,6 44,0
Dades anuals acumulades fins l'últim dia disponible
2017 -3,0 9,3 21,3 16,4 4,1 23,5 36,9   3,2 69,2 293,2
Últims 30 dies disponibles
24-09-2017 11,4     20,0     30,2 SW 2,3 20,9 0,2
17-09-2017 6,7     15,6     23,7 SSW 3,2 29,0 0,2
16-09-2017 10,7     15,6     22,6 NE 2,9 29,0 0,0
15-09-2017 11,9     15,3     18,6 NE 2,1 20,9 3,6
14-09-2017 13,2     21,7     31,1 SE 2,7 25,7 0,2
13-09-2017 10,7     19,4     28,1 SSW 3,9 25,7 0,0
12-09-2017 14,5     20,1     28,2 NE 3,1 24,1 0,0
11-09-2017 12,8     22,1     34,1 SSW 2,7 25,7 0,0
10-09-2017 14,9     19,7     25,3 NE 5,5 38,6 0,0
09-09-2017 15,4     18,7     22,1 NE 3,4 35,4 0,2
08-09-2017 10,4     19,2     27,9 SSW 2,7 20,9 0,2
07-09-2017 15,1     20,3     26,2 SW 2,3 20,9 0,2
06-09-2017 17,6     21,4     27,8 SW 1,9 17,7 0,0
05-09-2017 16,3     21,9     27,8 SW 2,7 20,9 0,2
04-09-2017 14,9     20,4     28,6 SW 1,6 29,0 38,8
03-09-2017 11,2     19,7     28,7 SW 1,6 19,3 0,2
02-09-2017 15,1     20,6     27,6 NE 3,9 25,7 0,0
01-09-2017 15,3     19,4     25,9 SW 1,3 14,5 0,0
31-08-2017 17,5     21,0     26,3 ENE 2,3 24,1 9,6
30-08-2017 17,2     20,7     25,3 SE 2,4 20,9 9,2
29-08-2017 17,8     20,1     25,6 SW 1,0 25,7 19,4
28-08-2017 16,9     23,8     32,1 SW 2,6 32,2 0,0
27-08-2017 18,9     25,0     30,6 SW 2,6 19,3 0,0
26-08-2017 17,8     24,7     30,8 ESE 2,7 24,1 0,0
25-08-2017 15,2     23,6     32,2 SE 3,2 29,0 0,0
24-08-2017 16,3     23,8     30,7 SW 4,7 27,4 0,0
23-08-2017 16,5     23,6     31,6 SW 2,7 20,9 0,0
22-08-2017 14,3     23,4     31,3 SSW 3,7 24,1 0,0
21-08-2017 19,3     24,6     30,8 SSE 3,9 32,2 0,0
20-08-2017 16,6     23,2     29,0 SSW 3,2 24,1 0,0
Últims 13 mesos disponibles
08/2017 10,7 16,7 21,0 23,6 25,3 30,5 36,9 3,1 32,2 50,2
07/2017 11,6 17,0 21,3 24,1 20,8 30,8 34,5 3,6 30,6 3,0
06/2017 11,1 15,3 19,7 23,3 19,9 30,1 34,0 3,6 40,2 16,4
05/2017 3,5 9,6 14,3 17,7 19,6 25,4 30,8 3,4 35,4 6,8
04/2017 -1,1 4,8 9,9 12,9 12,1 20,6 27,9 3,0 40,2 23,6
03/2017 -0,3 3,5 7,6 11,4 11,1 19,8 28,0 2,6 43,5 45,6
02/2017 -0,7 3,4 10,4 9,0 7,1 15,4 20,2 2,9 67,6 23,8
01/2017 -3,0 0,9 8,3 6,6 4,1 12,9 18,9 4,0 69,2 79,8
Tots els anys disponibles
Nota sobre les dades: s'avisa a l'usuari de la provisionalitat i no oficialitat d'aquestes dades
Logo AVAMET blanc
Llicència de Creative CommonsLa web d'AVAMET i els seus continguts estan subjectes a una llicència de
Reconeixement - No Comercial - Compartir igual